Time;durP1;ratioP1;P1;durP2;ratioP2;P2;SDS_P1;SDS_P2;PMS_P1;PMS_P2;Temp;Humidity;BMP_temperature;BMP_pressure;BME280_temperature;BME280_humidity;BME280_pressure;Samples;Min_cycle;Max_cycle;Signal;HPM_P1;HPM_P2
2022/12/19 00:00:21;;;;;;;36.58;20.13;;;;;;;1.65;88.43;101762.06;5073566;28;20670;-88
2022/12/19 00:02:47;;;;;;;46.72;22.75;;;;;;;1.73;88.06;101752.63;5071229;28;20031;-88
2022/12/19 00:05:12;;;;;;;39.25;21.17;;;;;;;1.86;88.15;101741.44;5076954;28;20130;-88
2022/12/19 00:07:38;;;;;;;50.70;22.75;;;;;;;1.90;88.49;101734.53;5071790;28;20136;-87
2022/12/19 00:10:04;;;;;;;48.05;24.38;;;;;;;1.90;88.75;101738.00;5091375;28;20543;-87
2022/12/19 00:12:29;;;;;;;45.28;21.25;;;;;;;1.93;88.72;101740.66;5095559;28;20023;-88
2022/12/19 00:14:55;;;;;;;31.63;15.60;;;;;;;1.95;88.44;101738.03;5092384;28;20024;-87
2022/12/19 00:17:20;;;;;;;50.05;26.35;;;;;;;1.85;88.91;101737.06;5101800;28;20032;-88
2022/12/19 00:19:45;;;;;;;44.42;22.83;;;;;;;1.91;88.42;101729.34;5099745;28;20406;-88
2022/12/19 00:22:10;;;;;;;46.78;22.13;;;;;;;1.95;88.51;101711.97;5097738;28;20043;-88
2022/12/19 00:24:36;;;;;;;41.25;19.27;;;;;;;1.91;88.94;101704.97;5082848;28;20023;-88
2022/12/19 00:27:01;;;;;;;42.38;19.70;;;;;;;1.99;87.97;101732.88;5094227;28;20095;-88
2022/12/19 00:29:26;;;;;;;47.03;23.52;;;;;;;1.88;88.18;101715.41;5085077;28;20035;-88
2022/12/19 00:31:51;;;;;;;49.65;25.75;;;;;;;1.79;88.39;101710.97;5078785;28;20038;-86
2022/12/19 00:34:17;;;;;;;40.38;21.60;;;;;;;1.92;88.27;101710.22;5102684;28;20028;-88
2022/12/19 00:36:42;;;;;;;57.20;27.33;;;;;;;1.98;88.14;101709.41;5095510;28;20030;-88
2022/12/19 00:39:09;;;;;;;46.58;22.95;;;;;;;1.98;87.73;101681.59;5098841;28;20028;-88
2022/12/19 00:41:37;;;;;;;36.63;15.45;;;;;;;2.09;87.50;101701.66;5100317;28;20050;-88
2022/12/19 00:44:04;;;;;;;57.28;27.15;;;;;;;1.99;87.99;101698.97;5092637;28;20115;-88
2022/12/19 00:46:31;;;;;;;44.55;18.88;;;;;;;1.99;88.21;101685.06;5075622;28;20028;-87
2022/12/19 00:48:58;;;;;;;44.65;22.35;;;;;;;2.08;88.07;101692.97;5094557;28;20028;-88
2022/12/19 00:51:29;;;;;;;49.65;25.85;;;;;;;2.11;88.26;101681.69;5075623;28;20039;-87
2022/12/19 00:53:55;;;;;;;48.10;23.17;;;;;;;2.10;87.58;101680.81;5101552;28;20035;-87
2022/12/19 00:56:23;;;;;;;43.75;22.33;;;;;;;2.14;87.77;101687.78;5102868;28;20049;-87
2022/12/19 00:58:49;;;;;;;43.95;20.42;;;;;;;2.12;88.02;101684.31;5086060;28;20359;-86
2022/12/19 01:01:24;;;;;;;47.45;22.60;;;;;;;2.15;88.02;101680.88;5087219;28;20031;-88
2022/12/19 01:03:49;;;;;;;41.05;20.73;;;;;;;2.22;87.77;101667.00;5100110;28;20154;-88
2022/12/19 01:06:15;;;;;;;39.45;19.65;;;;;;;2.32;87.45;101665.31;5082655;28;20111;-88
2022/12/19 01:08:40;;;;;;;53.90;23.25;;;;;;;2.29;87.78;101672.28;5095624;28;20539;-88
2022/12/19 01:11:06;;;;;;;42.17;20.25;;;;;;;2.32;87.62;101673.16;5094931;28;20027;-88
2022/12/19 01:13:34;;;;;;;48.92;21.83;;;;;;;2.28;87.85;101664.41;5071096;28;20110;-87
2022/12/19 01:16:04;;;;;;;58.03;26.23;;;;;;;2.26;87.92;101669.63;5077909;28;20066;-88
2022/12/19 01:18:30;;;;;;;46.85;20.42;;;;;;;2.31;88.00;101664.44;5099298;28;20035;-87
2022/12/19 01:21:02;;;;;;;45.60;24.50;;;;;;;2.38;87.45;101667.94;5077260;28;20028;-87
2022/12/19 01:23:27;;;;;;;39.30;16.13;;;;;;;2.33;87.83;101654.88;5080465;28;20019;-87
2022/12/19 01:25:54;;;;;;;43.60;21.55;;;;;;;2.36;87.58;101667.09;5098049;28;20035;-87
2022/12/19 01:28:20;;;;;;;42.42;19.67;;;;;;;2.34;87.15;101653.16;5097944;28;20038;-87
2022/12/19 01:30:45;;;;;;;47.47;24.63;;;;;;;2.23;87.70;101634.81;5075062;28;20403;-88
2022/12/19 01:33:12;;;;;;;46.63;21.30;;;;;;;2.35;87.46;101642.72;5103022;28;20379;-87
2022/12/19 01:35:39;;;;;;;37.58;16.52;;;;;;;2.40;87.27;101650.59;5101427;28;20024;-88
2022/12/19 01:38:04;;;;;;;47.65;22.25;;;;;;;2.27;87.44;101636.59;5080133;28;20032;-87
2022/12/19 01:40:30;;;;;;;43.95;22.02;;;;;;;2.36;87.44;101656.66;5100366;28;20027;-87
2022/12/19 01:42:55;;;;;;;45.25;20.58;;;;;;;2.31;87.18;101648.78;5084924;28;20024;-88
2022/12/19 01:45:30;;;;;;;45.88;21.00;;;;;;;2.39;87.28;101649.72;5077111;28;20028;-88
2022/12/19 01:48:12;;;;;;;47.65;23.20;;;;;;;2.40;87.52;101650.59;5086107;28;20375;-88
2022/12/19 01:50:40;;;;;;;;;;;;;;;2.47;86.99;101647.13;5086254;28;20487;-88
2022/12/19 01:53:08;;;;;;;43.33;19.95;;;;;;;2.43;86.91;101632.34;5078103;28;20319;-88
2022/12/19 01:55:35;;;;;;;42.08;19.27;;;;;;;2.39;87.53;101641.91;5073083;28;20158;-88
2022/12/19 01:58:01;;;;;;;45.80;21.20;;;;;;;2.37;87.83;101635.78;5076626;28;20135;-87
2022/12/19 02:00:26;;;;;;;50.00;22.25;;;;;;;2.40;87.82;101633.19;5079269;28;20601;-88
2022/12/19 02:03:05;;;;;;;43.45;21.48;;;;;;;2.46;87.65;101641.06;5096777;28;20198;-89
2022/12/19 02:05:30;;;;;;;52.22;22.75;;;;;;;2.42;88.15;101630.59;5096939;28;20164;-87
2022/12/19 02:07:56;;;;;;;47.17;21.25;;;;;;;2.45;87.97;101623.66;5096188;28;20032;-88
2022/12/19 02:10:21;;;;;;;47.75;22.20;;;;;;;2.47;88.14;101629.78;5077410;28;20035;-88
2022/12/19 02:12:46;;;;;;;52.72;23.75;;;;;;;2.43;88.35;101627.13;5089241;28;20059;-87
2022/12/19 02:15:14;;;;;;;52.28;24.48;;;;;;;2.39;88.88;101618.41;5096252;27;20395;-88
2022/12/19 02:18:11;;;;;;;39.95;20.67;;;;;;;2.59;88.52;101613.28;5105284;28;20095;-89
2022/12/19 02:20:45;;;;;;;45.85;22.52;;;;;;;2.59;88.19;101607.19;5079722;28;20369;-88
2022/12/19 02:23:22;;;;;;;42.08;19.95;;;;;;;2.50;88.98;101590.63;5091380;28;20506;-88
2022/12/19 02:26:06;;;;;;;42.10;19.80;;;;;;;2.60;88.84;101607.19;5094230;28;20285;-88
2022/12/19 02:28:44;;;;;;;52.05;24.02;;;;;;;2.58;89.12;101605.47;5084075;28;20076;-88
2022/12/19 02:31:29;;;;;;;41.88;19.80;;;;;;;2.59;88.94;101589.78;5080663;28;20032;-89
2022/12/19 02:34:18;;;;;;;52.90;22.63;;;;;;;2.59;89.40;101594.16;5095032;28;20083;-89
2022/12/19 02:36:54;;;;;;;45.70;20.75;;;;;;;2.64;88.91;101582.84;5068466;28;20375;-88
2022/12/19 02:39:33;;;;;;;39.28;19.63;;;;;;;2.74;88.37;101588.97;5079956;27;20406;-88
2022/12/19 02:42:00;;;;;;;36.70;18.75;;;;;;;2.79;88.41;101592.47;5077733;28;20172;-89
2022/12/19 02:44:32;;;;;;;50.55;22.30;;;;;;;2.74;88.51;101582.03;5079533;28;20071;-88
2022/12/19 02:47:01;;;;;;;50.50;21.42;;;;;;;2.76;88.94;101566.38;5107107;27;20028;-88
2022/12/19 02:49:33;;;;;;;47.22;20.90;;;;;;;2.78;89.37;101564.63;5087789;28;20023;-89
2022/12/19 02:52:09;;;;;;;47.20;19.83;;;;;;;2.83;89.20;101562.03;5081865;28;20554;-88
2022/12/19 02:54:34;;;;;;;44.13;19.85;;;;;;;2.87;89.38;101553.34;5104443;27;20466;-88
2022/12/19 02:57:31;;;;;;;52.10;25.80;;;;;;;2.95;89.90;101562.09;5097217;27;20035;-88
2022/12/19 03:00:06;;;;;;;43.53;20.30;;;;;;;2.99;89.46;101556.88;5100807;28;20165;-88
2022/12/19 03:02:41;;;;;;;52.22;22.50;;;;;;;3.04;90.03;101560.38;5092960;28;20035;-88
2022/12/19 03:05:23;;;;;;;41.05;19.83;;;;;;;3.09;89.38;101541.22;5101875;28;20032;-88
2022/12/19 03:07:58;;;;;;;40.25;17.52;;;;;;;3.15;88.45;101547.31;5096586;28;20438;-89
2022/12/19 03:10:43;;;;;;;34.88;16.85;;;;;;;3.17;89.46;101534.25;5099389;28;20491;-88
2022/12/19 03:13:14;;;;;;;35.33;17.83;;;;;;;3.17;89.54;101542.09;5097052;28;20024;-88
2022/12/19 03:15:41;;;;;;;44.08;21.52;;;;;;;3.20;90.10;101556.03;5084519;28;20024;-89
2022/12/19 03:18:07;;;;;;;38.20;18.00;;;;;;;3.15;89.78;101536.00;5096839;27;20054;-89
2022/12/19 03:20:56;;;;;;;46.53;20.90;;;;;;;3.22;89.90;101550.84;5078698;28;20027;-89
2022/12/19 03:23:21;;;;;;;46.88;19.73;;;;;;;3.24;90.28;101544.72;5081827;28;20035;-89
2022/12/19 03:26:02;;;;;;;41.70;20.45;;;;;;;3.31;90.55;101550.81;5074206;28;20031;-89
2022/12/19 03:29:02;;;;;;;46.17;21.10;;;;;;;3.43;90.29;101539.50;5078386;28;20510;-89
2022/12/19 03:31:29;;;;;;;47.58;21.63;;;;;;;3.38;90.70;101547.34;5069026;28;20427;-90
2022/12/19 03:33:59;;;;;;;43.33;19.98;;;;;;;3.34;90.63;101529.91;5100216;28;20026;-90
2022/12/19 03:36:30;;;;;;;38.42;18.98;;;;;;;3.37;90.87;101531.69;5083482;28;20031;-90
2022/12/19 03:38:56;;;;;;;41.15;19.30;;;;;;;3.48;91.09;101543.84;5101891;28;20069;-91
2022/12/19 03:44:12;;;;;;;41.92;18.38;;;;;;;3.53;90.96;101539.50;5091345;28;20043;-91
2022/12/19 03:46:44;;;;;;;42.58;19.20;;;;;;;3.59;91.28;101538.66;5082911;28;20048;-92
2022/12/19 03:49:11;;;;;;;40.75;19.13;;;;;;;3.58;91.56;101534.28;5101484;28;20050;-91
2022/12/19 03:52:01;;;;;;;39.30;18.23;;;;;;;3.62;91.31;101516.84;5083359;28;20514;-91
2022/12/19 03:54:30;;;;;;;34.63;17.25;;;;;;;3.61;90.95;101530.81;5107562;27;20470;-92
2022/12/19 03:57:03;;;;;;;38.33;17.42;;;;;;;3.70;91.67;101525.56;5110168;27;20085;-91
2022/12/19 03:59:40;;;;;;;42.97;18.13;;;;;;;3.85;91.96;101522.91;5101650;28;20015;-91
2022/12/19 04:02:07;;;;;;;38.38;17.35;;;;;;;3.91;91.78;101522.03;5080467;28;20036;-91
2022/12/19 04:04:41;;;;;;;36.15;17.27;;;;;;;3.97;91.64;101525.53;5086775;28;20068;-90
2022/12/19 04:07:07;;;;;;;35.53;15.05;;;;;;;4.08;92.58;101525.50;5095940;28;20059;-92
2022/12/19 04:09:36;;;;;;;35.50;14.63;;;;;;;4.33;92.69;101521.03;5094711;28;20457;-91
2022/12/19 04:12:12;;;;;;;46.80;22.15;;;;;;;4.45;92.58;101513.16;5075724;28;20032;-91
2022/12/19 04:14:38;;;;;;;47.88;19.50;;;;;;;4.50;93.08;101519.25;5097689;28;20043;-91
2022/12/19 04:17:39;;;;;;;37.92;17.38;;;;;;;4.71;93.01;101527.88;5073517;28;20027;-91
2022/12/19 04:20:15;;;;;;;40.33;18.38;;;;;;;4.85;93.69;101516.47;5076653;28;20376;-91
2022/12/19 04:22:49;;;;;;;35.70;16.30;;;;;;;5.02;93.84;101499.75;5095277;28;20035;-90
2022/12/19 04:25:20;;;;;;;33.38;16.77;;;;;;;5.10;93.21;101500.56;5072696;28;20039;-93
2022/12/19 04:27:54;;;;;;;40.45;20.30;;;;;;;5.14;93.45;101504.91;5073510;28;20145;-90
2022/12/19 04:30:20;;;;;;;27.55;14.50;;;;;;;5.21;92.96;101496.09;5084310;28;20515;-92
2022/12/19 04:32:46;;;;;;;23.92;12.18;;;;;;;5.28;93.52;101512.69;5075212;28;20030;-91
2022/12/19 04:35:11;;;;;;;27.20;13.60;;;;;;;5.40;93.22;101496.84;5090415;28;20443;-93
2022/12/19 04:37:37;;;;;;;27.25;12.95;;;;;;;5.57;92.48;101494.06;5077628;28;20019;-92
2022/12/19 04:40:04;;;;;;;27.88;15.68;;;;;;;5.65;93.01;101488.78;5073190;28;20039;-91
2022/12/19 04:42:29;;;;;;;26.48;13.13;;;;;;;5.74;92.46;101486.06;5074009;28;20016;-92
2022/12/19 04:44:55;;;;;;;25.83;13.35;;;;;;;5.74;92.09;101492.16;5090403;28;20028;-92
2022/12/19 04:47:20;;;;;;;24.08;12.77;;;;;;;5.79;92.90;101486.88;5079470;28;20024;-91
2022/12/19 04:49:45;;;;;;;23.42;13.30;;;;;;;5.84;92.27;101498.19;5079085;28;20043;-92
2022/12/19 04:52:11;;;;;;;23.10;13.15;;;;;;;5.92;92.20;101483.25;5076393;28;20486;-92
2022/12/19 04:54:36;;;;;;;25.23;12.02;;;;;;;5.81;92.63;101478.09;5083442;28;20077;-92
2022/12/19 04:57:01;;;;;;;22.83;12.77;;;;;;;5.87;93.17;101488.53;5105624;28;20292;-93
2022/12/19 04:59:27;;;;;;;22.55;11.85;;;;;;;5.91;93.42;101491.13;5084277;28;20022;-92
2022/12/19 05:01:52;;;;;;;20.95;11.43;;;;;;;5.91;93.61;101486.72;5079020;28;20069;-93
2022/12/19 05:04:17;;;;;;;23.02;12.43;;;;;;;5.99;93.26;101487.56;5095198;28;20034;-93
2022/12/19 05:06:42;;;;;;;22.88;12.20;;;;;;;6.02;93.07;101487.53;5079720;28;20020;-93
2022/12/19 05:09:10;;;;;;;20.92;11.60;;;;;;;5.98;93.56;101485.84;5088071;28;20023;-93
2022/12/19 05:11:35;;;;;;;23.15;12.50;;;;;;;6.07;93.85;101490.13;5081647;28;20486;-92
2022/12/19 05:14:01;;;;;;;23.20;13.20;;;;;;;6.09;93.65;101483.06;5075059;28;20231;-92
2022/12/19 05:16:26;;;;;;;26.95;13.25;;;;;;;6.05;93.71;101465.63;5075781;28;20185;-93
2022/12/19 05:18:53;;;;;;;19.05;10.15;;;;;;;6.12;93.61;101478.66;5071887;28;20103;-93
2022/12/19 05:21:18;;;;;;;23.95;12.55;;;;;;;6.17;93.61;101475.13;5086606;28;20023;-93
2022/12/19 05:23:43;;;;;;;20.73;11.13;;;;;;;6.08;93.81;101463.84;5096678;28;20467;-94
2022/12/19 05:26:10;;;;;;;16.05;9.45;;;;;;;6.26;93.68;101485.53;5077307;28;20479;-94
2022/12/19 05:28:35;;;;;;;22.48;11.68;;;;;;;6.26;94.04;101464.50;5074570;28;20505;-93
2022/12/19 05:31:10;;;;;;;24.40;12.77;;;;;;;6.35;93.48;101462.63;5086115;28;20197;-93
2022/12/19 05:33:36;;;;;;;21.98;12.63;;;;;;;6.31;93.85;101470.56;5076230;28;20024;-94
2022/12/19 05:36:01;;;;;;;21.35;11.02;;;;;;;6.35;93.67;101481.03;5088752;28;20066;-93
2022/12/19 05:38:27;;;;;;;19.80;11.13;;;;;;;6.45;93.97;101480.91;5082358;28;20074;-94
2022/12/19 05:40:53;;;;;;;20.60;12.05;;;;;;;6.43;93.82;101482.66;5084613;28;20023;-94
2022/12/19 05:43:19;;;;;;;17.52;9.68;;;;;;;6.43;93.50;101480.91;5074317;28;20040;-94
2022/12/19 05:45:44;;;;;;;22.27;11.50;;;;;;;6.43;94.16;101464.28;5084466;28;20340;-93
2022/12/19 05:48:09;;;;;;;20.00;11.13;;;;;;;6.52;93.22;101462.41;5101517;28;20088;-94
2022/12/19 05:50:35;;;;;;;15.95;8.60;;;;;;;6.61;93.11;101480.66;5103804;28;20047;-94
2022/12/19 05:53:00;;;;;;;14.95;8.25;;;;;;;6.66;92.57;101470.09;5078180;28;20044;-93
2022/12/19 05:55:26;;;;;;;16.00;9.77;;;;;;;6.68;92.47;101473.59;5086300;28;20070;-94
2022/12/19 05:57:51;;;;;;;18.73;9.70;;;;;;;6.72;92.62;101463.91;5084118;28;20027;-94
2022/12/19 06:00:16;;;;;;;18.13;9.95;;;;;;;6.83;92.35;101488.25;5082758;28;20115;-93
2022/12/19 06:02:45;;;;;;;14.60;8.98;;;;;;;6.82;92.06;101476.88;5089573;28;20019;-93
2022/12/19 06:05:10;;;;;;;17.15;9.75;;;;;;;6.80;91.97;101481.28;5106511;28;20378;-94
2022/12/19 06:07:35;;;;;;;14.98;10.90;;;;;;;6.84;92.42;101474.22;5085359;28;20146;-94
2022/12/19 06:10:01;;;;;;;15.82;9.55;;;;;;;6.86;91.81;101472.47;5099479;28;20024;-93
2022/12/19 06:12:26;;;;;;;12.18;8.85;;;;;;;6.78;91.63;101454.16;5083746;28;20032;-93
2022/12/19 06:14:51;;;;;;;14.68;8.57;;;;;;;7.01;91.01;101468.72;5091993;28;20024;-92
2022/12/19 06:17:17;;;;;;;15.32;9.55;;;;;;;7.02;91.07;101473.94;5089303;28;20095;-93
2022/12/19 06:19:42;;;;;;;12.23;7.78;;;;;;;7.05;90.94;101466.03;5094144;28;20054;-93
2022/12/19 06:22:07;;;;;;;13.88;8.07;;;;;;;7.04;90.88;101480.06;5086596;28;20023;-91
2022/12/19 06:24:32;;;;;;;13.07;8.90;;;;;;;7.10;91.17;101463.31;5111329;28;20023;-93
2022/12/19 06:26:58;;;;;;;13.02;7.80;;;;;;;7.11;91.25;101468.53;5080983;28;20081;-94
2022/12/19 06:29:23;;;;;;;14.38;8.55;;;;;;;7.18;91.04;101465.81;5086061;28;20382;-94
2022/12/19 06:31:48;;;;;;;13.57;8.10;;;;;;;7.15;90.52;101470.25;5080594;28;20012;-93
2022/12/19 06:34:13;;;;;;;12.13;8.63;;;;;;;7.16;90.95;101479.84;5088411;28;20546;-94
2022/12/19 06:36:42;;;;;;;13.32;8.32;;;;;;;7.25;90.68;101484.09;5088829;28;20039;-93
2022/12/19 06:39:12;;;;;;;13.18;8.95;;;;;;;7.23;90.97;101483.28;5085270;28;20036;-93
2022/12/19 06:44:21;;;;;;;10.52;7.05;;;;;;;7.35;90.17;101474.31;5100495;28;20051;-93
2022/12/19 06:46:46;;;;;;;12.15;7.28;;;;;;;7.36;89.67;101495.31;5086843;28;20028;-93
2022/12/19 06:49:12;;;;;;;10.40;7.20;;;;;;;7.35;90.47;101475.16;5086028;28;20038;-93
2022/12/19 06:51:37;;;;;;;10.55;7.35;;;;;;;7.27;89.86;101470.91;5086142;28;20066;-94
2022/12/19 06:54:04;;;;;;;16.55;9.15;;;;;;;7.37;90.86;101502.34;5085955;28;20166;-93
2022/12/19 06:56:35;;;;;;;11.85;7.95;;;;;;;7.49;90.33;101493.34;5083633;28;20107;-92
2022/12/19 06:59:00;;;;;;;10.60;8.43;;;;;;;7.48;90.41;101491.63;5082063;28;20058;-93
2022/12/19 07:01:40;;;;;;;12.10;8.07;;;;;;;7.50;90.61;101495.09;5084829;28;20052;-93
2022/12/19 07:04:09;;;;;;;11.48;6.55;;;;;;;7.46;90.13;101485.53;5075646;28;20024;-92
2022/12/19 07:06:35;;;;;;;11.68;7.13;;;;;;;7.53;90.19;101487.16;5079355;28;20101;-92
2022/12/19 07:09:00;;;;;;;10.70;6.95;;;;;;;7.42;90.71;101481.22;5079944;28;20499;-92
2022/12/19 07:11:25;;;;;;;13.48;7.28;;;;;;;7.45;90.14;101483.78;5075744;28;20067;-92
2022/12/19 07:13:50;;;;;;;10.15;7.07;;;;;;;7.46;90.21;101488.16;5077547;28;20077;-93
2022/12/19 07:16:16;;;;;;;12.20;6.90;;;;;;;7.48;90.18;101489.00;5088544;28;20106;-92
2022/12/19 07:18:41;;;;;;;10.18;6.43;;;;;;;7.60;90.41;101486.16;5082589;28;20044;-93
2022/12/19 07:21:10;;;;;;;9.68;7.53;;;;;;;7.50;90.53;101478.44;5077398;28;20031;-91
2022/12/19 07:23:35;;;;;;;12.35;7.20;;;;;;;7.52;90.40;101492.44;5082268;28;20044;-91
2022/12/19 07:26:01;;;;;;;11.85;8.13;;;;;;;7.79;89.79;101483.19;5080187;28;20070;-92
2022/12/19 07:28:26;;;;;;;9.75;7.43;;;;;;;7.54;90.11;101488.00;5079452;28;20031;-92
2022/12/19 07:30:52;;;;;;;11.38;7.70;;;;;;;7.46;90.28;101480.28;5080355;28;20340;-92
2022/12/19 07:33:17;;;;;;;10.20;7.65;;;;;;;7.50;89.93;101489.81;5073788;28;20020;-92
2022/12/19 07:35:42;;;;;;;9.68;6.57;;;;;;;7.49;89.52;101481.97;5077984;28;20020;-91
2022/12/19 07:38:07;;;;;;;9.50;6.75;;;;;;;7.52;89.37;101484.56;5096603;28;20035;-92
2022/12/19 07:40:34;;;;;;;10.23;6.28;;;;;;;7.56;89.10;101487.09;5079725;28;20038;-92
2022/12/19 07:43:04;;;;;;;10.63;6.40;;;;;;;7.56;88.63;101484.47;5076373;28;20047;-92
2022/12/19 07:45:30;;;;;;;10.15;6.32;;;;;;;7.64;88.29;101493.06;5076479;28;20039;-91
2022/12/19 07:47:59;;;;;;;7.90;5.43;;;;;;;7.65;88.45;101501.88;5074116;28;20142;-92
2022/12/19 07:50:25;;;;;;;11.13;6.90;;;;;;;7.61;88.64;101498.41;5081026;28;20130;-93
2022/12/19 07:52:52;;;;;;;9.38;6.63;;;;;;;7.60;88.35;101495.78;5085730;28;20111;-92
2022/12/19 07:55:18;;;;;;;10.68;6.80;;;;;;;7.71;88.04;101503.53;5077098;28;20395;-92
2022/12/19 07:57:43;;;;;;;7.72;5.95;;;;;;;7.72;87.85;101523.66;5083198;28;20022;-92
2022/12/19 08:00:09;;;;;;;10.45;5.78;;;;;;;7.72;87.22;101518.41;5079586;28;20032;-92
2022/12/19 08:02:34;;;;;;;8.82;6.20;;;;;;;7.77;86.94;101517.44;5075837;28;20027;-92
2022/12/19 08:05:04;;;;;;;8.98;5.90;;;;;;;7.76;86.73;101513.06;5090170;28;20020;-92
2022/12/19 08:07:29;;;;;;;8.48;5.70;;;;;;;7.75;86.27;101506.06;5088189;28;20040;-93
2022/12/19 08:09:55;;;;;;;9.32;7.10;;;;;;;7.74;87.00;101525.41;5076823;28;20456;-92
2022/12/19 08:12:20;;;;;;;9.60;6.72;;;;;;;7.82;86.73;101512.09;5075622;28;20101;-91
2022/12/19 08:14:45;;;;;;;9.70;5.88;;;;;;;7.95;86.24;101546.97;5099920;28;20592;-92
2022/12/19 08:17:11;;;;;;;8.95;5.78;;;;;;;7.95;86.40;101526.75;5075895;28;20297;-91
2022/12/19 08:19:36;;;;;;;9.60;6.63;;;;;;;7.92;86.92;101530.31;5084320;28;20024;-91
2022/12/19 08:22:01;;;;;;;8.93;6.43;;;;;;;7.90;86.86;101523.34;5081516;28;20027;-91
2022/12/19 08:24:26;;;;;;;9.65;6.70;;;;;;;7.94;86.06;101511.88;5077512;28;20039;-91
2022/12/19 08:26:52;;;;;;;9.10;6.10;;;;;;;8.01;86.06;101518.75;5078598;28;20027;-91
2022/12/19 08:29:17;;;;;;;8.13;6.13;;;;;;;8.05;86.04;101506.38;5078044;28;20128;-92
2022/12/19 08:31:42;;;;;;;8.02;5.82;;;;;;;8.04;86.15;101504.66;5102950;28;20791;-92
2022/12/19 08:34:08;;;;;;;11.60;5.40;;;;;;;8.03;85.73;101511.69;5082850;28;20359;-92
2022/12/19 08:36:33;;;;;;;11.15;6.00;;;;;;;8.05;86.24;101501.13;5078972;28;20081;-91
2022/12/19 08:38:59;;;;;;;11.73;6.85;;;;;;;8.13;86.00;101521.16;5073168;28;20035;-91
2022/12/19 08:41:24;;;;;;;7.75;5.05;;;;;;;8.17;85.12;101517.56;5079940;28;20027;-91
2022/12/19 08:43:53;;;;;;;6.93;5.65;;;;;;;8.21;85.86;101528.03;5096753;28;20274;-92
2022/12/19 08:46:19;;;;;;;7.07;4.80;;;;;;;8.27;84.96;101534.06;5079068;28;20136;-90
2022/12/19 08:48:44;;;;;;;7.93;5.82;;;;;;;8.17;85.44;101529.88;5095543;28;20027;-91
2022/12/19 08:51:12;;;;;;;9.93;6.35;;;;;;;8.28;85.63;101524.38;5073308;28;20050;-90
2022/12/19 08:53:40;;;;;;;12.60;5.57;;;;;;;8.31;85.03;101504.13;5078021;28;20011;-92
2022/12/19 08:56:10;;;;;;;6.70;5.47;;;;;;;8.30;85.32;101519.94;5099172;28;20026;-91
2022/12/19 08:58:35;;;;;;;9.77;6.05;;;;;;;8.32;85.13;101520.78;5079657;28;20103;-91
2022/12/19 09:01:03;;;;;;;6.53;5.18;;;;;;;8.39;84.78;101512.78;5073476;28;20155;-92
2022/12/19 09:03:30;;;;;;;8.63;5.78;;;;;;;8.60;83.51;101522.00;5076158;28;20031;-90
2022/12/19 09:06:00;;;;;;;6.88;5.30;;;;;;;8.54;83.86;101511.59;5077438;28;20475;-90
2022/12/19 09:08:27;;;;;;;6.55;5.28;;;;;;;8.69;83.25;101524.44;5076427;28;20035;-91
2022/12/19 09:11:22;;;;;;;7.50;4.50;;;;;;;8.76;82.57;101524.28;5083113;28;20091;-92
2022/12/19 09:13:47;;;;;;;8.18;4.72;;;;;;;8.76;81.98;101524.28;5061685;28;20546;-91
2022/12/19 09:16:22;;;;;;;7.40;4.93;;;;;;;8.79;82.00;101543.56;5081656;28;20115;-91
2022/12/19 09:18:50;;;;;;;7.32;4.97;;;;;;;8.78;82.01;101520.75;5085581;28;20383;-91
2022/12/19 09:21:16;;;;;;;6.40;4.03;;;;;;;8.81;82.10;101543.53;5092369;28;20257;-91
2022/12/19 09:23:47;;;;;;;7.20;4.82;;;;;;;8.51;83.57;101530.09;5093523;28;20036;-92
2022/12/19 09:26:12;;;;;;;8.25;4.45;;;;;;;8.77;82.66;101544.50;5095042;28;20050;-91
2022/12/19 09:28:39;;;;;;;6.13;4.72;;;;;;;8.56;83.57;101549.31;5074480;28;20499;-92
2022/12/19 09:31:07;;;;;;;8.63;5.03;;;;;;;8.54;84.44;101530.03;5078588;28;20114;-91
2022/12/19 09:33:34;;;;;;;11.00;5.13;;;;;;;8.50;84.42;101531.00;5072401;28;20020;-91
2022/12/19 09:36:00;;;;;;;7.70;5.32;;;;;;;8.57;84.76;101545.78;5096189;28;20499;-91
2022/12/19 09:38:27;;;;;;;8.65;5.55;;;;;;;8.53;84.73;101532.69;5073854;28;20031;-91
2022/12/19 09:41:14;;;;;;;7.35;4.90;;;;;;;8.56;84.70;101544.03;5074550;28;20044;-91
2022/12/19 09:43:50;;;;;;;7.93;5.07;;;;;;;8.51;84.63;101539.78;5082182;28;20036;-91
2022/12/19 09:46:34;;;;;;;10.88;5.75;;;;;;;8.56;84.99;101530.00;5070514;28;20054;-92
2022/12/19 09:49:00;;;;;;;8.98;5.80;;;;;;;8.56;84.51;101528.22;5076083;28;20023;-91
2022/12/19 09:51:37;;;;;;;6.97;4.95;;;;;;;8.68;84.35;101530.63;5104680;28;20059;-92
2022/12/19 09:54:14;;;;;;;6.25;4.45;;;;;;;8.86;83.48;101534.63;5083510;28;20072;-92
2022/12/19 09:56:42;;;;;;;8.23;5.00;;;;;;;8.77;83.60;101542.75;5084259;28;20347;-92
2022/12/19 09:59:31;;;;;;;7.97;5.10;;;;;;;8.84;83.51;101540.81;5079662;28;20297;-91
2022/12/19 10:02:03;;;;;;;6.65;4.75;;;;;;;8.93;82.44;101530.06;5090964;28;20081;-92
2022/12/19 10:04:33;;;;;;;7.82;4.55;;;;;;;9.00;82.54;101539.59;5073470;28;20020;-91
2022/12/19 10:06:58;;;;;;;8.20;4.80;;;;;;;9.05;82.14;101550.06;5081577;28;20032;-92
2022/12/19 10:09:31;;;;;;;5.82;3.92;;;;;;;9.06;82.30;101551.78;5076294;28;20031;-92
2022/12/19 10:11:56;;;;;;;6.53;4.65;;;;;;;9.15;82.04;101560.34;5075788;28;20498;-91
2022/12/19 10:14:42;;;;;;;6.88;5.35;;;;;;;9.11;81.94;101545.50;5077863;28;20051;-92
2022/12/19 10:17:24;;;;;;;8.60;5.18;;;;;;;9.15;81.67;101543.66;5077492;28;20406;-91
2022/12/19 10:20:11;;;;;;;7.43;4.00;;;;;;;9.17;81.85;101534.78;5082433;28;20025;-91
2022/12/19 10:23:00;;;;;;;7.35;4.60;;;;;;;9.16;81.28;101533.06;5088759;28;20110;-91
2022/12/19 10:25:28;;;;;;;7.88;4.43;;;;;;;9.11;81.30;101537.56;5092647;28;20028;-91
2022/12/19 10:28:15;;;;;;;9.30;5.10;;;;;;;9.23;80.76;101543.47;5077472;28;20054;-91
2022/12/19 10:30:48;;;;;;;6.90;4.10;;;;;;;9.18;80.81;101533.88;5076320;28;20035;-92
2022/12/19 10:33:26;;;;;;;6.03;4.00;;;;;;;9.21;80.81;101530.31;5078888;28;20016;-91
2022/12/19 10:35:55;;;;;;;8.50;4.22;;;;;;;9.28;80.77;101547.75;5082001;28;20171;-91
2022/12/19 10:38:34;;;;;;;5.15;4.10;;;;;;;9.25;80.70;101561.00;5098322;28;20483;-92
2022/12/19 10:41:13;;;;;;;6.78;4.25;;;;;;;9.15;81.55;101539.25;5080441;28;20439;-91
2022/12/19 10:43:56;;;;;;;7.70;4.80;;;;;;;9.16;81.64;101540.09;5079325;28;20081;-91
2022/12/19 10:46:31;;;;;;;8.20;4.95;;;;;;;9.30;81.34;101542.44;5079855;28;20038;-92
2022/12/19 10:48:57;;;;;;;8.57;4.78;;;;;;;9.16;82.06;101540.09;5078886;28;20023;-92
2022/12/19 10:51:26;;;;;;;8.63;4.60;;;;;;;9.17;82.29;101550.63;5076109;28;20516;-92
2022/12/19 10:53:54;;;;;;;6.80;4.78;;;;;;;9.02;83.96;101532.50;5070818;28;20067;-91
2022/12/19 10:56:25;;;;;;;7.03;5.07;;;;;;;9.11;83.54;101553.41;5077262;28;20447;-93
2022/12/19 10:58:56;;;;;;;6.47;4.43;;;;;;;9.10;84.13;101556.09;5070981;28;20566;-92
2022/12/19 11:01:26;;;;;;;7.85;5.13;;;;;;;9.13;84.28;101545.44;5072342;28;20480;-93
2022/12/19 11:04:12;;;;;;;7.75;4.00;;;;;;;9.06;85.80;101541.22;5076275;28;20023;-92
2022/12/19 11:07:05;;;;;;;4.80;4.40;;;;;;;9.03;85.79;101551.84;5075029;28;20032;-92
2022/12/19 11:09:42;;;;;;;6.75;4.60;;;;;;;9.07;86.42;101537.69;5078974;28;20020;-92
2022/12/19 11:12:07;;;;;;;6.72;4.97;;;;;;;9.05;85.62;101532.44;5081430;28;20169;-92
2022/12/19 11:14:36;;;;;;;6.55;4.95;;;;;;;9.01;86.08;101538.69;5079322;28;20874;-91
2022/12/19 11:17:03;;;;;;;6.88;5.55;;;;;;;8.97;86.09;101525.59;5070894;28;20114;-91
2022/12/19 11:19:37;;;;;;;8.63;5.32;;;;;;;8.98;85.57;101519.44;5074086;28;20497;-91
2022/12/19 11:22:48;;;;;;;6.72;4.90;;;;;;;9.09;84.94;101515.66;5076928;28;20028;-93
2022/12/19 11:25:20;;;;;;;10.13;5.95;;;;;;;9.03;84.96;101499.94;4984648;28;20107;-92
2022/12/19 11:27:49;;;;;;;6.80;5.18;;;;;;;9.17;84.18;101515.47;5009849;28;20034;-90
2022/12/19 11:30:14;;;;;;;8.77;5.00;;;;;;;9.23;83.72;101514.44;5046769;28;20080;-94
2022/12/19 11:32:42;;;;;;;5.33;4.03;;;;;;;9.28;83.74;101515.19;5073784;28;20024;-91
2022/12/19 11:35:16;;;;;;;6.03;4.00;;;;;;;9.35;83.08;101512.38;5079602;28;20808;-93
2022/12/19 11:37:49;;;;;;;6.55;4.35;;;;;;;9.37;82.86;101502.66;5077962;28;20102;-93
2022/12/19 11:40:37;;;;;;;8.70;4.70;;;;;;;9.42;82.67;101498.16;5073501;28;20138;-92